createdAt,value
2023-09-16T00:02:19.030Z,17.48
2023-09-16T00:04:46.886Z,17.42
2023-09-16T00:07:14.748Z,17.39
2023-09-16T00:09:43.424Z,17.32
2023-09-16T00:12:11.203Z,17.26
2023-09-16T00:14:39.384Z,17.27
2023-09-16T00:17:10.330Z,17.32
2023-09-16T00:19:38.117Z,17.31
2023-09-16T00:22:11.302Z,17.32
2023-09-16T00:24:38.986Z,17.31
2023-09-16T00:27:08.528Z,17.26
2023-09-16T00:29:36.597Z,17.31
2023-09-16T00:32:05.177Z,17.27
2023-09-16T00:34:34.610Z,17.25
2023-09-16T00:37:02.425Z,17.26
2023-09-16T00:39:30.256Z,17.34
2023-09-16T00:41:58.216Z,17.35
2023-09-16T00:44:26.126Z,17.32
2023-09-16T00:46:53.729Z,17.31
2023-09-16T00:49:21.387Z,17.29
2023-09-16T00:51:50.624Z,17.26
2023-09-16T00:54:18.422Z,17.31
2023-09-16T00:56:46.823Z,17.26
2023-09-16T00:59:14.815Z,17.33
2023-09-16T01:01:46.164Z,17.44
2023-09-16T01:04:14.114Z,17.42
2023-09-16T01:06:44.259Z,17.40
2023-09-16T01:09:13.517Z,17.43
2023-09-16T01:11:41.197Z,17.43
2023-09-16T01:14:12.414Z,17.37
2023-09-16T01:16:45.605Z,17.27
2023-09-16T01:19:21.190Z,17.19
2023-09-16T01:21:50.278Z,17.18
2023-09-16T01:24:20.980Z,17.15
2023-09-16T01:26:50.013Z,17.12
2023-09-16T01:29:19.704Z,17.12
2023-09-16T01:31:48.385Z,17.12
2023-09-16T01:34:24.443Z,17.06
2023-09-16T01:36:54.453Z,17.02
2023-09-16T01:39:24.484Z,16.95
2023-09-16T01:41:55.514Z,16.88
2023-09-16T01:44:23.279Z,16.80
2023-09-16T01:46:50.915Z,16.70
2023-09-16T01:49:18.634Z,16.66
2023-09-16T01:51:46.343Z,16.71
2023-09-16T01:54:14.104Z,16.75
2023-09-16T01:56:42.049Z,16.74
2023-09-16T01:59:10.992Z,16.79
2023-09-16T02:01:38.712Z,16.71
2023-09-16T02:04:07.428Z,16.67
2023-09-16T02:06:35.118Z,16.63
2023-09-16T02:09:02.740Z,16.58
2023-09-16T02:11:31.948Z,16.63
2023-09-16T02:14:00.538Z,16.64
2023-09-16T02:16:29.652Z,16.57
2023-09-16T02:18:57.342Z,16.61
2023-09-16T02:21:25.109Z,16.54
2023-09-16T02:23:52.982Z,16.45
2023-09-16T02:26:20.778Z,16.48
2023-09-16T02:28:48.743Z,16.43
2023-09-16T02:31:17.144Z,16.40
2023-09-16T02:33:46.255Z,16.35
2023-09-16T02:36:14.063Z,16.37
2023-09-16T02:38:41.792Z,16.37
2023-09-16T02:41:09.460Z,16.34
2023-09-16T02:43:37.217Z,16.31
2023-09-16T02:46:04.959Z,16.26
2023-09-16T02:48:32.651Z,16.30
2023-09-16T02:51:01.641Z,16.34
2023-09-16T02:53:29.366Z,16.27
2023-09-16T02:55:57.459Z,16.24
2023-09-16T02:58:25.210Z,16.14
2023-09-16T03:00:53.142Z,16.10
2023-09-16T03:03:20.982Z,16.07
2023-09-16T03:05:48.701Z,16.09
2023-09-16T03:08:17.694Z,16.08
2023-09-16T03:10:46.228Z,16.01
2023-09-16T03:13:13.869Z,16.07
2023-09-16T03:15:46.475Z,15.98
2023-09-16T03:18:14.546Z,15.88
2023-09-16T03:20:42.270Z,15.81
2023-09-16T03:23:10.134Z,15.79
2023-09-16T03:25:39.210Z,15.81
2023-09-16T03:28:06.860Z,15.78
2023-09-16T03:30:34.775Z,15.76
2023-09-16T03:33:03.451Z,15.71
2023-09-16T03:35:32.360Z,15.86
2023-09-16T03:38:00.382Z,15.76
2023-09-16T03:40:28.151Z,15.73
2023-09-16T03:42:58.131Z,15.79
2023-09-16T03:45:29.562Z,15.86
2023-09-16T03:47:57.991Z,15.72
2023-09-16T03:50:25.815Z,15.67
2023-09-16T03:52:53.509Z,15.52
2023-09-16T03:55:21.216Z,15.54
2023-09-16T03:57:48.833Z,15.50
2023-09-16T04:00:18.116Z,15.45
2023-09-16T04:02:45.838Z,15.38
2023-09-16T04:05:14.755Z,15.41
2023-09-16T04:07:42.453Z,15.43
2023-09-16T04:10:10.856Z,15.48
2023-09-16T04:12:38.558Z,15.41
2023-09-16T04:15:07.718Z,15.39
2023-09-16T04:17:36.868Z,15.42
2023-09-16T04:20:06.976Z,15.34
2023-09-16T04:22:34.864Z,15.36
2023-09-16T04:25:02.936Z,15.30
2023-09-16T04:27:30.840Z,15.24
2023-09-16T04:29:58.481Z,15.30
2023-09-16T04:32:26.335Z,15.30
2023-09-16T04:34:58.613Z,15.38
2023-09-16T04:37:26.471Z,15.32
2023-09-16T04:39:54.385Z,15.27
2023-09-16T04:42:22.075Z,15.26
2023-09-16T04:44:49.822Z,15.31
2023-09-16T04:47:20.537Z,15.26
2023-09-16T04:49:49.383Z,15.30
2023-09-16T04:52:18.458Z,15.34
2023-09-16T04:54:46.671Z,15.37
2023-09-16T04:57:14.943Z,15.43
2023-09-16T04:59:44.221Z,15.43
2023-09-16T05:02:11.887Z,15.47
2023-09-16T05:04:39.539Z,15.53
2023-09-16T05:07:07.444Z,15.55
2023-09-16T05:09:36.832Z,15.60
2023-09-16T05:12:04.773Z,15.54
2023-09-16T05:14:32.388Z,15.55
2023-09-16T05:17:00.189Z,15.65
2023-09-16T05:19:27.968Z,15.65
2023-09-16T05:21:55.633Z,15.75
2023-09-16T05:24:23.301Z,15.71
2023-09-16T05:26:52.359Z,15.80
2023-09-16T05:29:20.139Z,15.88
2023-09-16T05:31:47.886Z,15.93
2023-09-16T05:34:15.558Z,16.08
2023-09-16T05:36:43.319Z,16.18
2023-09-16T05:39:10.991Z,16.20
2023-09-16T05:41:38.929Z,16.29
2023-09-16T05:44:08.174Z,16.39
2023-09-16T05:46:35.900Z,16.50
2023-09-16T05:49:08.928Z,16.65
2023-09-16T05:51:36.923Z,16.73
2023-09-16T05:54:04.901Z,16.94
2023-09-16T05:56:33.842Z,16.99
2023-09-16T05:59:01.784Z,17.11
2023-09-16T06:01:30.846Z,17.33
2023-09-16T06:03:58.611Z,17.54
2023-09-16T06:06:26.741Z,17.62
2023-09-16T06:08:54.362Z,18.17
2023-09-16T06:11:27.199Z,19.36
2023-09-16T06:13:54.888Z,20.97
2023-09-16T06:16:22.645Z,21.65
2023-09-16T06:18:52.046Z,22.47
2023-09-16T06:21:19.939Z,23.07
2023-09-16T06:23:47.918Z,23.21
2023-09-16T06:26:15.638Z,24.15
2023-09-16T06:28:43.619Z,24.24
2023-09-16T06:31:11.259Z,24.91
2023-09-16T06:33:39.135Z,24.37
2023-09-16T06:36:08.493Z,25.47
2023-09-16T06:38:36.183Z,25.24
2023-09-16T06:41:04.456Z,24.18
2023-09-16T06:43:32.088Z,25.51
2023-09-16T06:46:00.301Z,25.89
2023-09-16T06:48:28.010Z,25.76
2023-09-16T06:50:56.431Z,26.00
2023-09-16T06:53:25.472Z,25.78
2023-09-16T06:55:55.614Z,26.06
2023-09-16T06:58:24.602Z,26.41
2023-09-16T07:00:52.407Z,26.71
2023-09-16T07:03:20.349Z,26.86
2023-09-16T07:05:48.588Z,26.96
2023-09-16T07:08:16.532Z,27.22
2023-09-16T07:10:45.586Z,27.27
2023-09-16T07:13:13.579Z,27.74
2023-09-16T07:15:41.345Z,28.09
2023-09-16T07:18:09.169Z,27.44
2023-09-16T07:20:37.181Z,27.23
2023-09-16T07:23:05.434Z,26.59
2023-09-16T07:25:33.160Z,25.53
2023-09-16T07:28:04.137Z,25.12
2023-09-16T07:30:31.819Z,24.51
2023-09-16T07:32:59.563Z,24.45
2023-09-16T07:35:27.292Z,25.32
2023-09-16T07:37:54.945Z,26.28
2023-09-16T07:40:22.702Z,26.97
2023-09-16T07:42:50.395Z,27.96
2023-09-16T07:45:19.717Z,28.17
2023-09-16T07:47:47.511Z,27.07
2023-09-16T07:50:15.198Z,26.48
2023-09-16T07:52:43.340Z,27.50
2023-09-16T07:55:11.302Z,25.85
2023-09-16T07:57:38.969Z,26.18
2023-09-16T08:00:08.585Z,25.03
2023-09-16T08:02:37.723Z,26.10
2023-09-16T08:05:06.351Z,25.74
2023-09-16T08:07:35.963Z,26.22
2023-09-16T08:10:03.712Z,26.74
2023-09-16T08:12:31.482Z,26.13
2023-09-16T08:15:00.131Z,24.90
2023-09-16T08:17:27.820Z,25.02
2023-09-16T08:19:56.814Z,26.42
2023-09-16T08:22:24.556Z,26.00
2023-09-16T08:24:52.391Z,25.27
2023-09-16T08:27:21.224Z,25.72
2023-09-16T08:29:50.627Z,26.62
2023-09-16T08:32:18.469Z,25.62
2023-09-16T08:34:46.130Z,24.92
2023-09-16T08:37:15.210Z,25.54
2023-09-16T08:39:43.227Z,25.52
2023-09-16T08:42:17.074Z,24.68
2023-09-16T08:44:46.502Z,24.19
2023-09-16T08:47:17.570Z,24.01
2023-09-16T08:49:51.760Z,24.99
2023-09-16T08:52:22.057Z,25.64
2023-09-16T08:54:51.341Z,25.45
2023-09-16T08:57:20.611Z,26.04
2023-09-16T08:59:49.360Z,25.22
2023-09-16T09:02:17.564Z,24.99
2023-09-16T09:04:45.404Z,23.69
2023-09-16T09:07:14.632Z,24.14
2023-09-16T09:09:43.753Z,24.08
2023-09-16T09:12:12.084Z,24.31
2023-09-16T09:14:39.990Z,23.70
2023-09-16T09:17:09.888Z,24.60
2023-09-16T09:19:39.185Z,24.61
2023-09-16T09:22:07.296Z,24.20
2023-09-16T09:24:35.087Z,23.46
2023-09-16T09:27:04.133Z,22.92
2023-09-16T09:29:31.871Z,23.23
2023-09-16T09:31:59.902Z,23.62
2023-09-16T09:34:30.291Z,23.80
2023-09-16T09:36:57.961Z,23.49
2023-09-16T09:39:25.747Z,23.47
2023-09-16T09:41:54.045Z,23.78
2023-09-16T09:44:24.217Z,23.58
2023-09-16T09:46:51.942Z,23.62
2023-09-16T09:49:20.540Z,23.74
2023-09-16T09:51:49.552Z,23.73
2023-09-16T09:54:18.207Z,23.24
2023-09-16T09:56:46.469Z,23.11
2023-09-16T09:59:14.461Z,23.51
2023-09-16T10:01:43.971Z,23.53
2023-09-16T10:04:11.928Z,23.72
2023-09-16T10:06:40.009Z,23.66
2023-09-16T10:09:08.194Z,23.91
2023-09-16T10:11:37.398Z,23.75
2023-09-16T10:14:05.400Z,23.73
2023-09-16T10:16:33.210Z,23.84
2023-09-16T10:19:02.342Z,24.04
2023-09-16T10:21:30.058Z,24.34
2023-09-16T10:23:58.289Z,24.14
2023-09-16T10:26:25.952Z,24.44
2023-09-16T10:28:56.359Z,24.60
2023-09-16T10:31:25.243Z,24.39
2023-09-16T10:33:54.927Z,24.66
2023-09-16T10:36:24.265Z,24.69
2023-09-16T10:38:52.636Z,24.68
2023-09-16T10:41:22.500Z,24.79
2023-09-16T10:43:50.802Z,24.77
2023-09-16T10:46:19.098Z,24.97
2023-09-16T10:48:47.177Z,25.08
2023-09-16T10:51:20.162Z,25.16
2023-09-16T10:53:53.676Z,25.21
2023-09-16T10:56:31.999Z,25.27
2023-09-16T10:59:03.723Z,24.92
2023-09-16T11:01:37.423Z,25.23
2023-09-16T11:04:10.285Z,25.12
2023-09-16T11:06:38.156Z,25.49
2023-09-16T11:09:07.596Z,25.70
2023-09-16T11:11:36.400Z,25.68
2023-09-16T11:14:06.479Z,25.30
2023-09-16T11:16:44.894Z,25.12
2023-09-16T11:19:15.932Z,25.34
2023-09-16T11:21:44.180Z,25.55
2023-09-16T11:24:14.514Z,25.81
2023-09-16T11:26:42.460Z,25.99
2023-09-16T11:29:20.552Z,25.73
2023-09-16T11:31:48.605Z,25.41
2023-09-16T11:34:19.477Z,25.48
2023-09-16T11:36:52.983Z,25.47
2023-09-16T11:39:26.001Z,25.38
2023-09-16T11:41:54.240Z,25.73
2023-09-16T11:44:22.147Z,25.99
2023-09-16T11:46:50.504Z,25.91
2023-09-16T11:49:18.503Z,25.95
2023-09-16T11:51:52.102Z,26.11
2023-09-16T11:54:20.052Z,25.92
2023-09-16T11:56:49.038Z,25.68
2023-09-16T11:59:16.926Z,25.80
2023-09-16T12:01:44.897Z,25.81
2023-09-16T12:04:16.393Z,25.97
2023-09-16T12:06:45.408Z,26.03
2023-09-16T12:09:17.214Z,26.03
2023-09-16T12:11:50.717Z,26.13
2023-09-16T12:14:20.019Z,26.17
2023-09-16T12:16:48.182Z,26.32
2023-09-16T12:19:17.230Z,26.33
2023-09-16T12:21:49.151Z,26.41
2023-09-16T12:24:21.231Z,26.35
2023-09-16T12:26:49.888Z,26.42
2023-09-16T12:29:17.574Z,26.55
2023-09-16T12:31:46.817Z,26.79
2023-09-16T12:34:19.137Z,26.76
2023-09-16T12:36:52.208Z,26.46
2023-09-16T12:39:22.984Z,26.53
2023-09-16T12:42:04.455Z,26.62
2023-09-16T12:44:33.645Z,26.02
2023-09-16T12:47:04.599Z,26.38
2023-09-16T12:49:33.032Z,26.53
2023-09-16T12:52:00.925Z,26.66
2023-09-16T12:54:31.697Z,27.01
2023-09-16T12:56:59.440Z,26.98
2023-09-16T12:59:27.345Z,26.68
2023-09-16T13:01:55.701Z,26.99
2023-09-16T13:04:25.276Z,27.16
2023-09-16T13:06:54.425Z,27.19
2023-09-16T13:09:22.559Z,26.59
2023-09-16T13:11:52.038Z,26.73
2023-09-16T13:14:20.518Z,27.05
2023-09-16T13:16:48.550Z,27.06
2023-09-16T13:19:22.085Z,27.26
2023-09-16T13:21:51.918Z,27.32
2023-09-16T13:24:19.718Z,27.38
2023-09-16T13:26:50.954Z,27.19
2023-09-16T13:29:18.699Z,27.47
2023-09-16T13:31:47.083Z,27.17
2023-09-16T13:34:14.805Z,27.10
2023-09-16T13:36:43.315Z,27.34
2023-09-16T13:39:12.546Z,27.34
2023-09-16T13:41:41.639Z,27.43
2023-09-16T13:44:09.992Z,27.71
2023-09-16T13:46:37.717Z,27.84
2023-09-16T13:49:05.693Z,27.86
2023-09-16T13:51:33.473Z,27.53
2023-09-16T13:54:01.322Z,27.63
2023-09-16T13:56:31.192Z,27.85
2023-09-16T13:58:58.945Z,28.01
2023-09-16T14:01:27.590Z,28.08
2023-09-16T14:03:55.546Z,28.06
2023-09-16T14:06:23.893Z,28.13
2023-09-16T14:08:51.917Z,27.94
2023-09-16T14:11:20.862Z,27.98
2023-09-16T14:13:50.184Z,27.80
2023-09-16T14:16:17.825Z,27.80
2023-09-16T14:18:45.892Z,27.83
2023-09-16T14:21:13.626Z,27.65
2023-09-16T14:23:41.352Z,27.55
2023-09-16T14:26:09.132Z,27.58
2023-09-16T14:28:36.692Z,27.55
2023-09-16T14:31:08.826Z,27.66
2023-09-16T14:33:36.942Z,27.75
2023-09-16T14:36:05.472Z,27.79
2023-09-16T14:38:33.240Z,27.76
2023-09-16T14:41:05.519Z,27.36
2023-09-16T14:43:33.219Z,27.27
2023-09-16T14:46:00.931Z,27.26
2023-09-16T14:48:30.224Z,27.37
2023-09-16T14:50:57.949Z,27.45
2023-09-16T14:53:25.722Z,27.48
2023-09-16T14:55:53.450Z,27.44
2023-09-16T14:58:21.394Z,27.30
2023-09-16T15:00:49.330Z,27.16
2023-09-16T15:03:17.139Z,26.93
2023-09-16T15:05:46.270Z,26.86
2023-09-16T15:08:14.055Z,26.89
2023-09-16T15:10:43.201Z,26.90
2023-09-16T15:13:11.932Z,26.85
2023-09-16T15:15:39.727Z,26.69
2023-09-16T15:18:07.660Z,26.55
2023-09-16T15:20:35.285Z,26.52
2023-09-16T15:23:04.565Z,26.47
2023-09-16T15:25:32.282Z,26.37
2023-09-16T15:28:00.011Z,26.27
2023-09-16T15:30:28.404Z,26.33
2023-09-16T15:32:56.252Z,26.49
2023-09-16T15:35:24.506Z,26.58
2023-09-16T15:37:52.374Z,26.66
2023-09-16T15:40:21.481Z,26.71
2023-09-16T15:42:50.416Z,26.78
2023-09-16T15:45:18.896Z,26.79
2023-09-16T15:47:46.618Z,26.79
2023-09-16T15:50:15.520Z,26.72
2023-09-16T15:52:43.233Z,26.72
2023-09-16T15:55:11.050Z,26.68
2023-09-16T15:57:40.564Z,26.65
2023-09-16T16:00:09.360Z,26.62
2023-09-16T16:02:37.944Z,26.57
2023-09-16T16:05:06.949Z,26.56
2023-09-16T16:07:34.760Z,26.46
2023-09-16T16:10:04.090Z,26.42
2023-09-16T16:12:31.748Z,26.42
2023-09-16T16:15:00.789Z,26.37
2023-09-16T16:17:29.718Z,26.31
2023-09-16T16:19:57.481Z,26.27
2023-09-16T16:22:25.192Z,26.16
2023-09-16T16:24:52.986Z,26.06
2023-09-16T16:27:20.914Z,25.96
2023-09-16T16:29:48.985Z,25.85
2023-09-16T16:32:19.207Z,25.78
2023-09-16T16:34:47.553Z,25.69
2023-09-16T16:37:15.584Z,25.61
2023-09-16T16:39:43.185Z,25.59
2023-09-16T16:42:10.817Z,25.59
2023-09-16T16:44:40.695Z,25.55
2023-09-16T16:47:08.454Z,25.55
2023-09-16T16:49:37.539Z,25.64
2023-09-16T16:52:05.519Z,25.80
2023-09-16T16:54:34.127Z,25.81
2023-09-16T16:57:03.187Z,25.63
2023-09-16T16:59:30.897Z,25.50
2023-09-16T17:01:59.122Z,25.44
2023-09-16T17:04:26.935Z,25.38
2023-09-16T17:06:55.959Z,25.44
2023-09-16T17:09:24.259Z,25.47
2023-09-16T17:11:51.896Z,25.42
2023-09-16T17:14:19.585Z,25.29
2023-09-16T17:16:47.726Z,25.14
2023-09-16T17:19:15.465Z,24.99
2023-09-16T17:21:43.225Z,24.88
2023-09-16T17:24:12.338Z,24.78
2023-09-16T17:26:40.030Z,24.70
2023-09-16T17:29:07.891Z,24.66
2023-09-16T17:31:35.891Z,24.59
2023-09-16T17:34:03.929Z,24.53
2023-09-16T17:36:31.982Z,24.53
2023-09-16T17:38:59.843Z,24.50
2023-09-16T17:41:29.175Z,24.52
2023-09-16T17:43:56.836Z,24.46
2023-09-16T17:46:24.692Z,24.42
2023-09-16T17:48:53.039Z,24.38
2023-09-16T17:51:20.870Z,24.44
2023-09-16T17:53:50.214Z,24.43
2023-09-16T17:56:18.493Z,24.31
2023-09-16T17:58:47.554Z,24.24
2023-09-16T18:01:15.409Z,24.16
2023-09-16T18:03:43.530Z,24.12
2023-09-16T18:06:11.206Z,24.13
2023-09-16T18:08:39.703Z,24.11
2023-09-16T18:11:07.602Z,24.05
2023-09-16T18:13:35.304Z,24.11
2023-09-16T18:16:05.776Z,24.05
2023-09-16T18:18:33.524Z,24.10
2023-09-16T18:21:01.573Z,24.11
2023-09-16T18:23:32.607Z,24.11
2023-09-16T18:26:01.131Z,24.03
2023-09-16T18:28:29.624Z,23.93
2023-09-16T18:30:57.437Z,23.85
2023-09-16T18:33:28.514Z,23.85
2023-09-16T18:35:56.292Z,23.81
2023-09-16T18:38:24.791Z,23.84
2023-09-16T18:40:52.593Z,23.82
2023-09-16T18:43:20.720Z,23.78
2023-09-16T18:45:48.858Z,23.79
2023-09-16T18:48:17.265Z,23.73
2023-09-16T18:50:46.290Z,23.66
2023-09-16T18:53:14.010Z,23.65
2023-09-16T18:55:45.199Z,23.66
2023-09-16T18:58:14.568Z,23.66
2023-09-16T19:00:43.961Z,23.67
2023-09-16T19:03:11.994Z,23.69
2023-09-16T19:05:40.958Z,23.69
2023-09-16T19:08:11.331Z,23.66
2023-09-16T19:10:40.783Z,23.63
2023-09-16T19:13:09.067Z,23.57
2023-09-16T19:15:37.555Z,23.61
2023-09-16T19:18:06.044Z,23.55
2023-09-16T19:20:33.718Z,23.58
2023-09-16T19:23:02.193Z,23.51
2023-09-16T19:25:31.261Z,23.50
2023-09-16T19:28:00.135Z,23.49
2023-09-16T19:30:28.227Z,23.53
2023-09-16T19:32:57.781Z,23.51
2023-09-16T19:35:26.075Z,23.47
2023-09-16T19:37:54.184Z,23.42
2023-09-16T19:40:23.122Z,23.37
2023-09-16T19:42:52.445Z,23.37
2023-09-16T19:45:20.034Z,23.41
2023-09-16T19:47:47.886Z,23.36
2023-09-16T19:50:15.800Z,23.34
2023-09-16T19:52:43.437Z,23.30
2023-09-16T19:55:11.163Z,23.31
2023-09-16T19:57:38.934Z,23.28
2023-09-16T20:00:10.605Z,23.24
2023-09-16T20:02:38.685Z,23.26
2023-09-16T20:05:08.567Z,23.24
2023-09-16T20:07:36.362Z,23.23
2023-09-16T20:10:04.367Z,23.20
2023-09-16T20:12:32.224Z,23.16
2023-09-16T20:14:59.952Z,23.17
2023-09-16T20:17:29.146Z,23.15
2023-09-16T20:19:56.887Z,23.12
2023-09-16T20:22:24.631Z,23.06
2023-09-16T20:24:52.276Z,23.00
2023-09-16T20:27:20.356Z,22.97
2023-09-16T20:29:48.425Z,22.93
2023-09-16T20:32:16.385Z,22.91
2023-09-16T20:34:46.896Z,22.89
2023-09-16T20:37:14.787Z,22.91
2023-09-16T20:39:42.584Z,22.89
2023-09-16T20:42:11.422Z,22.92
2023-09-16T20:44:39.347Z,22.98
2023-09-16T20:47:09.248Z,22.96
2023-09-16T20:49:37.616Z,22.86
2023-09-16T20:52:07.196Z,22.87
2023-09-16T20:54:35.004Z,22.88
2023-09-16T20:57:04.197Z,22.78
2023-09-16T20:59:34.245Z,22.73
2023-09-16T21:02:04.171Z,22.56
2023-09-16T21:04:32.976Z,22.46
2023-09-16T21:07:00.775Z,22.35
2023-09-16T21:09:29.817Z,22.20
2023-09-16T21:11:57.670Z,22.10
2023-09-16T21:14:26.897Z,22.01
2023-09-16T21:16:55.750Z,21.95
2023-09-16T21:19:23.643Z,21.97
2023-09-16T21:21:51.616Z,22.11
2023-09-16T21:24:19.468Z,22.17
2023-09-16T21:26:50.561Z,22.07
2023-09-16T21:29:19.701Z,22.10
2023-09-16T21:31:59.357Z,22.12
2023-09-16T21:34:29.691Z,22.03
2023-09-16T21:36:58.193Z,21.94
2023-09-16T21:39:25.914Z,21.85
2023-09-16T21:41:55.192Z,21.75
2023-09-16T21:44:24.228Z,21.70
2023-09-16T21:46:52.031Z,21.64
2023-09-16T21:49:19.931Z,21.68
2023-09-16T21:51:47.595Z,21.71
2023-09-16T21:54:15.165Z,21.66
2023-09-16T21:56:43.159Z,21.62
2023-09-16T21:59:12.247Z,21.65
2023-09-16T22:01:40.033Z,21.70
2023-09-16T22:04:07.783Z,21.86
2023-09-16T22:06:35.431Z,21.89
2023-09-16T22:09:03.078Z,21.83
2023-09-16T22:11:30.734Z,21.72
2023-09-16T22:13:58.477Z,21.65
2023-09-16T22:16:28.118Z,21.68
2023-09-16T22:18:55.857Z,21.56
2023-09-16T22:21:23.523Z,21.54
2023-09-16T22:23:51.417Z,21.56
2023-09-16T22:26:19.358Z,21.43
2023-09-16T22:28:47.066Z,21.40
2023-09-16T22:31:15.898Z,21.35
2023-09-16T22:33:45.278Z,21.28
2023-09-16T22:36:13.031Z,21.17
2023-09-16T22:38:40.752Z,21.12
2023-09-16T22:41:08.740Z,21.13
2023-09-16T22:43:36.378Z,21.06
2023-09-16T22:46:04.182Z,21.06
2023-09-16T22:48:31.978Z,21.02
2023-09-16T22:51:00.931Z,20.97
2023-09-16T22:53:28.579Z,21.02
2023-09-16T22:55:59.377Z,21.00
2023-09-16T22:58:27.126Z,20.91
2023-09-16T23:00:54.849Z,20.91
2023-09-16T23:03:22.858Z,20.73
2023-09-16T23:05:50.711Z,20.63
2023-09-16T23:08:19.654Z,20.58
2023-09-16T23:10:47.294Z,20.59
2023-09-16T23:13:15.040Z,20.49
2023-09-16T23:15:42.725Z,20.42
2023-09-16T23:18:10.652Z,20.38
2023-09-16T23:20:39.931Z,20.34
2023-09-16T23:23:09.144Z,20.32
2023-09-16T23:25:38.162Z,20.29
2023-09-16T23:28:06.579Z,20.26
2023-09-16T23:30:34.411Z,20.32
2023-09-16T23:33:02.137Z,20.36
2023-09-16T23:35:29.845Z,20.44
2023-09-16T23:37:57.732Z,20.52
2023-09-16T23:40:26.454Z,20.57
2023-09-16T23:42:55.436Z,20.55
2023-09-16T23:45:23.184Z,20.57
2023-09-16T23:47:50.827Z,20.53
2023-09-16T23:50:18.667Z,20.50
2023-09-16T23:52:46.405Z,20.48
2023-09-16T23:55:14.526Z,20.48
2023-09-16T23:57:42.290Z,20.42
